Time;durP1;ratioP1;P1;durP2;ratioP2;P2;SDS_P1;SDS_P2;PMS_P1;PMS_P2;Temp;Humidity;BMP_temperature;BMP_pressure;BME280_temperature;BME280_humidity;BME280_pressure;Samples;Min_cycle;Max_cycle;Signal;HPM_P1;HPM_P2
2022/05/18 00:02:06;;;;;;;9.95;4.25;;;;;;;;;;10332008;28;20041;-45
2022/05/18 00:07:07;;;;;;;6.53;3.75;;;;;;;;;;10331033;28;20037;-44
2022/05/18 00:12:09;;;;;;;8.75;3.78;;;;;;;;;;10332421;28;20057;-44
2022/05/18 00:17:09;;;;;;;9.90;4.53;;;;;;;;;;10330606;28;20027;-45
2022/05/18 00:22:11;;;;;;;9.13;4.32;;;;;;;;;;10330796;28;20058;-45
2022/05/18 00:27:12;;;;;;;8.95;3.67;;;;;;;;;;10330384;28;20054;-44
2022/05/18 00:32:12;;;;;;;9.77;4.82;;;;;;;;;;10329938;28;20022;-44
2022/05/18 00:37:13;;;;;;;9.85;4.30;;;;;;;;;;10310469;28;20029;-42
2022/05/18 00:42:23;;;;;;;6.22;3.70;;;;;;;;;;10329623;28;20136;-42
2022/05/18 00:47:24;;;;;;;8.02;4.28;;;;;;;;;;10324315;28;20113;-44
2022/05/18 00:52:35;;;;;;;8.45;3.83;;;;;;;;;;10326876;28;20442;-44
2022/05/18 00:58:04;;;;;;;8.30;3.50;;;;;;;;;;10327027;28;20038;-42
2022/05/18 01:03:22;;;;;;;6.88;4.32;;;;;;;;;;10302134;28;20042;-44
2022/05/18 01:08:36;;;;;;;;;;;;;;;;;;10324672;28;20034;-45
2022/05/18 01:13:37;;;;;;;11.68;4.28;;;;;;;;;;10310812;28;19925;-45
2022/05/18 01:18:38;;;;;;;7.03;4.20;;;;;;;;;;10327316;28;20022;-44
2022/05/18 01:24:09;;;;;;;5.88;3.58;;;;;;;;;;10310416;28;20049;-44
2022/05/18 01:29:11;;;;;;;10.40;3.90;;;;;;;;;;10328239;28;20482;-41
2022/05/18 01:34:13;;;;;;;6.20;3.85;;;;;;;;;;10310696;28;20028;-42
2022/05/18 01:39:30;;;;;;;4.65;3.55;;;;;;;;;;10325162;28;20046;-43
2022/05/18 01:44:34;;;;;;;6.53;3.50;;;;;;;;;;10309200;28;20037;-41
2022/05/18 01:49:38;;;;;;;7.03;3.70;;;;;;;;;;10307631;28;20371;-41
2022/05/18 01:54:46;;;;;;;5.30;3.10;;;;;;;;;;10326696;28;20129;-41
2022/05/18 01:59:46;;;;;;;6.90;3.60;;;;;;;;;;10321089;28;20069;-41
2022/05/18 02:04:47;;;;;;;6.28;3.65;;;;;;;;;;10324222;28;20064;-41
2022/05/18 02:09:48;;;;;;;6.03;3.13;;;;;;;;;;10325793;28;20040;-41
2022/05/18 02:14:48;;;;;;;5.72;3.40;;;;;;;;;;10324433;28;20037;-41
2022/05/18 02:19:49;;;;;;;6.85;3.75;;;;;;;;;;10324968;28;20506;-41
2022/05/18 02:24:50;;;;;;;3.85;3.25;;;;;;;;;;10326147;28;20027;-41
2022/05/18 02:29:50;;;;;;;3.88;3.22;;;;;;;;;;10327058;28;20031;-40
2022/05/18 02:34:51;;;;;;;6.07;3.75;;;;;;;;;;10325465;28;20031;-42
2022/05/18 02:39:52;;;;;;;6.30;3.80;;;;;;;;;;10326178;28;20042;-42
2022/05/18 02:44:53;;;;;;;8.07;3.55;;;;;;;;;;10324238;28;20026;-41
2022/05/18 02:49:53;;;;;;;7.93;3.75;;;;;;;;;;10322926;28;20762;-41
2022/05/18 03:00:14;;;;;;;5.65;3.42;;;;;;;;;;10325683;28;20093;-43
2022/05/18 03:05:14;;;;;;;7.10;3.78;;;;;;;;;;10322049;28;20030;-45
2022/05/18 03:10:18;;;;;;;5.53;3.65;;;;;;;;;;10325009;28;20038;-45
2022/05/18 03:15:19;;;;;;;6.95;3.85;;;;;;;;;;10323735;28;20120;-44
2022/05/18 03:25:40;;;;;;;4.43;3.35;;;;;;;;;;10304300;28;20410;-42
2022/05/18 03:30:41;;;;;;;5.95;4.50;;;;;;;;;;10331873;28;20031;-45
2022/05/18 03:35:42;;;;;;;8.35;3.63;;;;;;;;;;10329506;28;20038;-43
2022/05/18 03:40:42;;;;;;;5.53;3.83;;;;;;;;;;10331437;28;20084;-41
2022/05/18 03:45:43;;;;;;;4.70;3.65;;;;;;;;;;10330725;28;20085;-43
2022/05/18 03:50:47;;;;;;;6.40;3.80;;;;;;;;;;10330237;28;20105;-45
2022/05/18 03:55:48;;;;;;;7.10;3.90;;;;;;;;;;10329621;28;20097;-41
2022/05/18 04:00:52;;;;;;;4.90;4.07;;;;;;;;;;10331072;28;20039;-41
2022/05/18 04:05:53;;;;;;;4.18;3.50;;;;;;;;;;10329741;28;20069;-41
2022/05/18 04:10:55;;;;;;;4.78;3.35;;;;;;;;;;10329196;28;20033;-43
2022/05/18 04:15:56;;;;;;;4.53;3.25;;;;;;;;;;10337385;28;20093;-41
2022/05/18 04:20:58;;;;;;;3.95;2.88;;;;;;;;;;10327858;28;20113;-43
2022/05/18 04:25:59;;;;;;;4.07;2.92;;;;;;;;;;10338491;28;20121;-43
2022/05/18 04:31:01;;;;;;;4.57;2.80;;;;;;;;;;10328143;28;20478;-43
2022/05/18 04:36:02;;;;;;;3.25;2.50;;;;;;;;;;10337502;28;20642;-42
2022/05/18 04:41:03;;;;;;;5.13;2.67;;;;;;;;;;10328851;28;20096;-42
2022/05/18 04:46:07;;;;;;;5.57;2.70;;;;;;;;;;10317040;28;20092;-41
2022/05/18 04:51:08;;;;;;;4.63;2.38;;;;;;;;;;10293363;28;20549;-41
2022/05/18 04:56:08;;;;;;;4.15;2.88;;;;;;;;;;10309127;28;20032;-43
2022/05/18 05:01:10;;;;;;;4.75;2.67;;;;;;;;;;10303506;28;20368;-45
2022/05/18 05:06:11;;;;;;;3.58;2.22;;;;;;;;;;10315894;28;20084;-45
2022/05/18 05:11:12;;;;;;;4.43;2.00;;;;;;;;;;10303981;28;20053;-46
2022/05/18 05:16:12;;;;;;;3.72;2.03;;;;;;;;;;10304199;28;20036;-46
2022/05/18 05:21:13;;;;;;;17.35;2.65;;;;;;;;;;10326478;28;20046;-46
2022/05/18 05:26:14;;;;;;;8.77;2.05;;;;;;;;;;10315397;28;20037;-46
2022/05/18 05:31:14;;;;;;;5.45;2.15;;;;;;;;;;10313637;28;20027;-44
2022/05/18 05:36:15;;;;;;;14.80;2.38;;;;;;;;;;10316095;28;20038;-44
2022/05/18 05:41:17;;;;;;;4.05;2.17;;;;;;;;;;10327786;28;20069;-44
2022/05/18 05:46:18;;;;;;;5.70;2.00;;;;;;;;;;10325773;28;20052;-46
2022/05/18 05:51:19;;;;;;;7.63;2.22;;;;;;;;;;10325600;28;20037;-44
2022/05/18 05:56:21;;;;;;;8.25;2.58;;;;;;;;;;10326414;28;20038;-45
2022/05/18 06:01:22;;;;;;;3.97;2.10;;;;;;;;;;10327402;28;20034;-44
2022/05/18 06:06:22;;;;;;;4.38;2.30;;;;;;;;;;10327559;28;20042;-44
2022/05/18 06:11:23;;;;;;;6.95;2.08;;;;;;;;;;10316324;28;20031;-46
2022/05/18 06:16:23;;;;;;;5.10;2.35;;;;;;;;;;10287346;28;20038;-45
2022/05/18 06:21:24;;;;;;;7.10;1.92;;;;;;;;;;10322642;28;20054;-44
2022/05/18 06:26:26;;;;;;;12.32;2.53;;;;;;;;;;10326184;28;20093;-44
2022/05/18 06:31:27;;;;;;;4.15;2.38;;;;;;;;;;10309904;28;20092;-43
2022/05/18 06:36:28;;;;;;;9.45;2.47;;;;;;;;;;10326434;28;20030;-45
2022/05/18 06:41:28;;;;;;;9.18;2.10;;;;;;;;;;10327188;28;20030;-42
2022/05/18 06:46:33;;;;;;;3.33;2.03;;;;;;;;;;10326691;28;20046;-43
2022/05/18 06:51:39;;;;;;;8.23;2.10;;;;;;;;;;10326839;28;20034;-44
2022/05/18 06:56:43;;;;;;;9.15;2.38;;;;;;;;;;10331075;28;20038;-44
2022/05/18 07:01:43;;;;;;;4.28;2.03;;;;;;;;;;10334471;28;20598;-44
2022/05/18 07:06:45;;;;;;;5.57;2.22;;;;;;;;;;10333887;28;20088;-44
2022/05/18 07:11:49;;;;;;;4.18;1.70;;;;;;;;;;10333655;28;20030;-43
2022/05/18 07:16:50;;;;;;;5.22;2.20;;;;;;;;;;10335058;28;20475;-46
2022/05/18 07:21:51;;;;;;;4.95;1.95;;;;;;;;;;10364676;28;20053;-43
2022/05/18 07:26:51;;;;;;;6.32;1.77;;;;;;;;;;10333500;28;20037;-43
2022/05/18 07:32:08;;;;;;;4.75;2.00;;;;;;;;;;10333451;28;20042;-44
2022/05/18 07:37:10;;;;;;;4.63;2.47;;;;;;;;;;10367967;28;20105;-44
2022/05/18 07:42:11;;;;;;;5.40;1.83;;;;;;;;;;10373394;28;20482;-46
2022/05/18 07:47:11;;;;;;;2.97;1.77;;;;;;;;;;10373061;28;20037;-42
2022/05/18 07:52:12;;;;;;;2.47;1.88;;;;;;;;;;10348545;28;20406;-43
2022/05/18 07:57:13;;;;;;;4.53;2.10;;;;;;;;;;10332241;28;20095;-43
2022/05/18 08:02:13;;;;;;;3.17;2.13;;;;;;;;;;10332156;28;20034;-44
2022/05/18 08:07:14;;;;;;;6.10;1.95;;;;;;;;;;10322802;28;20151;-47
2022/05/18 08:17:35;;;;;;;6.68;2.00;;;;;;;;;;10328328;28;20030;-44
2022/05/18 08:22:35;;;;;;;12.15;2.08;;;;;;;;;;10327766;28;20123;-42
2022/05/18 08:27:54;;;;;;;5.32;2.28;;;;;;;;;;10329646;28;20100;-46
2022/05/18 08:32:55;;;;;;;7.22;1.80;;;;;;;;;;10330816;28;20030;-46
2022/05/18 08:37:56;;;;;;;8.30;2.30;;;;;;;;;;10329884;28;20026;-46
2022/05/18 08:43:04;;;;;;;6.43;2.33;;;;;;;;;;10329512;28;20121;-46
2022/05/18 08:48:43;;;;;;;8.27;2.30;;;;;;;;;;10329339;28;20026;-45
2022/05/18 08:54:01;;;;;;;5.53;2.00;;;;;;;;;;10319468;28;20037;-46
2022/05/18 08:59:09;;;;;;;5.63;2.00;;;;;;;;;;10329147;28;20113;-46
2022/05/18 09:04:15;;;;;;;4.18;2.00;;;;;;;;;;10312687;28;20038;-45
2022/05/18 09:10:13;;;;;;;3.50;2.15;;;;;;;;;;10312642;28;20439;-44
2022/05/18 09:15:23;;;;;;;5.40;2.30;;;;;;;;;;10316699;28;20036;-42
2022/05/18 09:20:48;;;;;;;4.57;2.15;;;;;;;;;;10313554;28;20097;-45
2022/05/18 09:26:10;;;;;;;5.13;2.42;;;;;;;;;;10328727;28;20042;-46
2022/05/18 09:31:50;;;;;;;4.40;1.80;;;;;;;;;;10304044;28;20034;-47
2022/05/18 09:37:18;;;;;;;3.72;1.83;;;;;;;;;;10328125;28;20045;-43
2022/05/18 09:42:24;;;;;;;3.88;2.00;;;;;;;;;;10313125;28;20034;-42
2022/05/18 09:47:27;;;;;;;3.72;2.05;;;;;;;;;;10311378;28;20029;-44
2022/05/18 09:52:29;;;;;;;3.63;2.20;;;;;;;;;;10327763;28;20026;-43
2022/05/18 09:57:39;;;;;;;4.03;2.20;;;;;;;;;;10310962;28;20022;-44
2022/05/18 10:08:00;;;;;;;3.50;2.28;;;;;;;;;;10327797;28;20027;-42
2022/05/18 10:13:17;;;;;;;2.92;2.22;;;;;;;;;;10327567;28;20458;-43
2022/05/18 10:18:42;;;;;;;4.30;1.85;;;;;;;;;;10327308;28;20023;-41
2022/05/18 10:23:58;;;;;;;5.13;2.15;;;;;;;;;;10309190;28;20042;-41
2022/05/18 10:29:20;;;;;;;4.20;2.20;;;;;;;;;;10307427;28;20035;-41
2022/05/18 10:34:25;;;;;;;3.30;2.22;;;;;;;;;;10299430;28;20100;-45
2022/05/18 10:39:35;;;;;;;3.22;2.00;;;;;;;;;;10317842;28;20026;-46
2022/05/18 10:44:36;;;;;;;7.07;2.30;;;;;;;;;;10297836;28;20045;-42
2022/05/18 10:49:37;;;;;;;2.40;1.98;;;;;;;;;;10320048;28;20033;-45
2022/05/18 10:54:39;;;;;;;6.50;2.30;;;;;;;;;;10312447;28;20437;-42
2022/05/18 11:00:08;;;;;;;3.67;1.92;;;;;;;;;;10325900;28;20026;-43
2022/05/18 11:05:15;;;;;;;2.97;2.30;;;;;;;;;;10292515;28;20117;-43
2022/05/18 11:10:16;;;;;;;3.55;2.30;;;;;;;;;;10299212;28;20049;-44
2022/05/18 11:15:37;;;;;;;3.72;2.33;;;;;;;;;;10333507;28;20041;-45
2022/05/18 11:21:15;;;;;;;3.72;2.28;;;;;;;;;;10331292;28;20050;-45
2022/05/18 11:26:52;;;;;;;2.80;2.05;;;;;;;;;;10333057;28;20489;-44
2022/05/18 11:32:05;;;;;;;4.70;2.35;;;;;;;;;;10292035;28;20031;-45
2022/05/18 11:37:21;;;;;;;3.38;2.10;;;;;;;;;;10309435;28;20600;-43
2022/05/18 11:42:52;;;;;;;4.50;2.33;;;;;;;;;;10328930;28;20066;-46
2022/05/18 11:48:40;;;;;;;4.70;1.95;;;;;;;;;;10328702;28;20071;-44
2022/05/18 11:54:24;;;;;;;5.03;2.50;;;;;;;;;;10311591;28;20045;-44
2022/05/18 12:05:37;;;;;;;3.70;2.00;;;;;;;;;;10332249;28;20395;-45
2022/05/18 12:10:48;;;;;;;2.35;2.00;;;;;;;;;;10324197;28;20026;-46
2022/05/18 12:16:20;;;;;;;3.47;2.15;;;;;;;;;;10313426;28;20523;-44
2022/05/18 12:21:45;;;;;;;3.75;1.90;;;;;;;;;;10326754;28;20054;-45
2022/05/18 12:26:46;;;;;;;5.00;2.15;;;;;;;;;;10313869;28;20039;-43
2022/05/18 12:31:50;;;;;;;8.15;2.10;;;;;;;;;;10330893;28;20030;-44
2022/05/18 12:37:22;;;;;;;3.08;2.00;;;;;;;;;;10313451;28;20023;-42
2022/05/18 12:42:28;;;;;;;3.30;2.05;;;;;;;;;;10329041;28;20085;-41
2022/05/18 12:47:40;;;;;;;2.30;1.95;;;;;;;;;;10320255;28;20073;-42
2022/05/18 12:52:57;;;;;;;4.60;1.90;;;;;;;;;;10311575;28;20042;-41
2022/05/18 12:58:24;;;;;;;2.80;2.00;;;;;;;;;;10329282;28;20041;-44
2022/05/18 13:03:36;;;;;;;3.28;2.33;;;;;;;;;;10319232;28;20129;-42
2022/05/18 13:08:37;;;;;;;3.75;2.25;;;;;;;;;;10317736;28;20038;-42
2022/05/18 13:14:19;;;;;;;4.90;2.25;;;;;;;;;;10303627;28;20026;-42
2022/05/18 13:19:35;;;;;;;3.00;1.85;;;;;;;;;;10316244;28;20081;-44
2022/05/18 13:25:00;;;;;;;3.28;2.10;;;;;;;;;;10303086;28;20030;-45
2022/05/18 13:30:07;;;;;;;6.13;2.38;;;;;;;;;;10334483;28;20030;-43
2022/05/18 13:35:14;;;;;;;2.73;2.00;;;;;;;;;;10270884;28;20049;-42
2022/05/18 13:40:15;;;;;;;2.80;2.22;;;;;;;;;;10300271;28;20614;-44
2022/05/18 13:45:17;;;;;;;4.68;2.20;;;;;;;;;;10327393;28;20038;-44
2022/05/18 13:50:42;;;;;;;3.22;2.28;;;;;;;;;;10324115;28;20490;-41
2022/05/18 13:55:46;;;;;;;4.72;2.40;;;;;;;;;;10286462;28;20106;-42
2022/05/18 14:00:55;;;;;;;3.30;2.17;;;;;;;;;;10300689;28;20030;-41
2022/05/18 14:06:02;;;;;;;3.67;2.17;;;;;;;;;;10310629;28;20031;-41
2022/05/18 14:11:12;;;;;;;13.00;2.83;;;;;;;;;;10310744;28;20171;-42
2022/05/18 14:16:49;;;;;;;5.30;2.45;;;;;;;;;;10327350;28;20395;-41
2022/05/18 14:21:51;;;;;;;8.23;2.30;;;;;;;;;;10332766;28;20045;-44
2022/05/18 14:27:01;;;;;;;8.70;2.50;;;;;;;;;;10331777;28;20117;-47
2022/05/18 14:32:30;;;;;;;2.50;1.90;;;;;;;;;;10287657;28;20051;-44
2022/05/18 14:37:36;;;;;;;3.35;2.33;;;;;;;;;;10274907;28;20035;-44
2022/05/18 14:42:46;;;;;;;5.35;2.33;;;;;;;;;;10309201;28;20038;-45
2022/05/18 14:47:59;;;;;;;6.82;2.70;;;;;;;;;;10293913;28;20022;-46
2022/05/18 14:53:12;;;;;;;8.20;2.60;;;;;;;;;;10298329;28;20054;-45
2022/05/18 14:58:20;;;;;;;3.00;2.33;;;;;;;;;;10295755;28;20125;-46
2022/05/18 15:03:30;;;;;;;5.20;2.30;;;;;;;;;;10305217;28;20031;-45
2022/05/18 15:08:43;;;;;;;4.80;2.08;;;;;;;;;;10309167;28;20030;-42
2022/05/18 15:14:01;;;;;;;9.25;2.40;;;;;;;;;;10309224;28;20039;-46
2022/05/18 15:19:02;;;;;;;3.53;2.17;;;;;;;;;;10304176;28;20027;-43
2022/05/18 15:24:26;;;;;;;9.30;2.38;;;;;;;;;;10333798;28;21026;-45
2022/05/18 15:29:27;;;;;;;5.05;2.10;;;;;;;;;;10330403;28;20035;-43
2022/05/18 15:34:33;;;;;;;5.88;2.22;;;;;;;;;;10332223;28;20034;-45
2022/05/18 15:39:33;;;;;;;3.47;2.00;;;;;;;;;;10328120;28;20108;-45
2022/05/18 15:44:34;;;;;;;2.35;2.10;;;;;;;;;;10327289;28;20085;-43
2022/05/18 15:49:40;;;;;;;4.45;2.20;;;;;;;;;;10335229;28;20034;-44
2022/05/18 15:54:50;;;;;;;5.85;2.30;;;;;;;;;;10314477;28;20041;-45
2022/05/18 15:59:50;;;;;;;3.35;2.00;;;;;;;;;;10313217;28;20034;-44
2022/05/18 16:04:51;;;;;;;1.75;1.60;;;;;;;;;;10329332;28;22002;-44
2022/05/18 16:09:53;;;;;;;5.00;2.13;;;;;;;;;;10331554;28;20108;-44
2022/05/18 16:14:54;;;;;;;4.47;2.03;;;;;;;;;;10330514;28;21002;-43
2022/05/18 16:19:55;;;;;;;4.65;2.10;;;;;;;;;;10347162;28;20042;-44
2022/05/18 16:24:58;;;;;;;2.55;2.03;;;;;;;;;;10343708;28;20093;-43
2022/05/18 16:29:59;;;;;;;4.60;2.35;;;;;;;;;;10289582;28;20437;-44
2022/05/18 16:35:00;;;;;;;7.07;2.20;;;;;;;;;;10328537;28;20065;-43
2022/05/18 16:40:00;;;;;;;7.45;2.20;;;;;;;;;;10335728;28;20038;-45
2022/05/18 16:45:01;;;;;;;5.22;2.50;;;;;;;;;;10331433;28;20030;-44
2022/05/18 16:50:03;;;;;;;9.57;2.10;;;;;;;;;;10302417;28;20033;-43
2022/05/18 16:55:05;;;;;;;4.13;2.22;;;;;;;;;;10324935;28;20045;-43
2022/05/18 17:00:10;;;;;;;6.45;2.08;;;;;;;;;;10301672;28;20039;-43
2022/05/18 17:10:34;;;;;;;4.88;2.08;;;;;;;;;;10332198;28;20023;-42
2022/05/18 17:15:35;;;;;;;6.25;1.98;;;;;;;;;;10335864;28;20039;-42
2022/05/18 17:20:35;;;;;;;4.25;1.90;;;;;;;;;;10311348;28;20104;-40
2022/05/18 17:25:36;;;;;;;3.55;1.90;;;;;;;;;;10336089;28;20543;-40
2022/05/18 17:30:37;;;;;;;2.88;1.90;;;;;;;;;;10326424;28;20038;-40
2022/05/18 17:35:42;;;;;;;9.10;2.08;;;;;;;;;;10325191;28;20053;-41
2022/05/18 17:40:42;;;;;;;4.55;1.92;;;;;;;;;;10306570;28;20031;-42
2022/05/18 17:45:43;;;;;;;4.38;1.70;;;;;;;;;;10310787;28;20031;-40
2022/05/18 17:50:43;;;;;;;6.43;2.13;;;;;;;;;;10298127;28;20038;-43
2022/05/18 17:55:44;;;;;;;2.97;1.98;;;;;;;;;;10323116;28;20108;-41
2022/05/18 18:00:46;;;;;;;4.10;1.90;;;;;;;;;;10324775;28;20092;-44
2022/05/18 18:05:47;;;;;;;4.53;2.33;;;;;;;;;;10300048;28;20030;-44
2022/05/18 18:10:48;;;;;;;7.43;1.70;;;;;;;;;;10329108;28;20037;-46
2022/05/18 18:15:49;;;;;;;2.58;1.98;;;;;;;;;;10343530;28;20506;-44
2022/05/18 18:20:50;;;;;;;6.53;2.17;;;;;;;;;;10328846;28;20177;-45
2022/05/18 18:25:51;;;;;;;4.00;2.40;;;;;;;;;;10324360;28;20105;-46
2022/05/18 18:30:53;;;;;;;4.38;2.30;;;;;;;;;;10322088;28;20034;-46
2022/05/18 18:35:54;;;;;;;8.00;2.60;;;;;;;;;;10327234;28;20022;-46
2022/05/18 18:40:56;;;;;;;5.68;2.38;;;;;;;;;;10326697;28;20085;-46
2022/05/18 18:56:54;;;;;;;5.15;2.28;;;;;;;;;;10317708;28;20042;-42
2022/05/18 19:01:55;;;;;;;2.95;1.90;;;;;;;;;;10332756;28;20046;-44
2022/05/18 19:07:02;;;;;;;7.28;1.98;;;;;;;;;;10332613;28;20030;-44
2022/05/18 19:12:04;;;;;;;4.03;2.17;;;;;;;;;;10321017;28;20045;-45
2022/05/18 19:17:05;;;;;;;5.60;2.08;;;;;;;;;;10302792;28;20022;-44
2022/05/18 19:22:05;;;;;;;7.30;2.10;;;;;;;;;;10318531;28;20557;-43
2022/05/18 19:27:06;;;;;;;5.95;2.05;;;;;;;;;;10322449;28;20540;-43
2022/05/18 19:32:08;;;;;;;4.65;2.00;;;;;;;;;;10306410;28;20031;-41
2022/05/18 19:37:08;;;;;;;7.85;2.05;;;;;;;;;;10329109;28;20027;-42
2022/05/18 19:42:12;;;;;;;4.43;2.00;;;;;;;;;;10330677;28;20038;-45
2022/05/18 19:47:18;;;;;;;3.30;2.20;;;;;;;;;;10331400;28;20049;-43
2022/05/18 19:52:19;;;;;;;4.65;2.22;;;;;;;;;;10324828;28;20034;-42
2022/05/18 19:57:20;;;;;;;4.82;1.90;;;;;;;;;;10331696;28;20496;-41
2022/05/18 20:02:22;;;;;;;5.30;2.00;;;;;;;;;;10328783;28;20034;-41
2022/05/18 20:07:22;;;;;;;5.82;2.88;;;;;;;;;;10330225;28;20421;-41
2022/05/18 20:12:28;;;;;;;7.00;2.30;;;;;;;;;;10330447;28;20030;-43
2022/05/18 20:17:28;;;;;;;5.47;2.25;;;;;;;;;;10314751;28;20036;-44
2022/05/18 20:22:29;;;;;;;3.05;1.80;;;;;;;;;;10331333;28;20049;-41
2022/05/18 20:27:30;;;;;;;7.72;2.30;;;;;;;;;;10330930;28;20038;-43
2022/05/18 20:32:31;;;;;;;3.78;2.10;;;;;;;;;;10314078;28;20162;-43
2022/05/18 20:37:31;;;;;;;6.38;1.80;;;;;;;;;;10330169;28;20529;-44
2022/05/18 20:42:32;;;;;;;2.75;1.85;;;;;;;;;;10325998;28;20077;-45
2022/05/18 20:47:35;;;;;;;6.07;2.20;;;;;;;;;;10310341;28;20054;-42
2022/05/18 20:52:36;;;;;;;3.22;1.92;;;;;;;;;;10325460;28;20026;-42
2022/05/18 20:57:41;;;;;;;5.60;2.22;;;;;;;;;;10327712;28;20402;-44
2022/05/18 21:02:42;;;;;;;5.28;2.28;;;;;;;;;;10307270;28;20778;-42
2022/05/18 21:07:43;;;;;;;7.05;2.38;;;;;;;;;;10323159;28;20030;-43
2022/05/18 21:12:47;;;;;;;7.03;2.63;;;;;;;;;;10341254;28;20026;-45
2022/05/18 21:17:48;;;;;;;6.43;2.38;;;;;;;;;;10327051;28;20038;-43
2022/05/18 21:22:49;;;;;;;6.28;2.25;;;;;;;;;;10345494;28;20042;-43
2022/05/18 21:27:50;;;;;;;6.32;2.67;;;;;;;;;;10327879;28;20165;-44
2022/05/18 21:32:53;;;;;;;5.93;2.80;;;;;;;;;;10340863;28;20098;-44
2022/05/18 21:37:55;;;;;;;4.88;2.58;;;;;;;;;;10326149;28;20531;-45
2022/05/18 21:42:56;;;;;;;5.00;2.45;;;;;;;;;;10289218;28;20026;-45
2022/05/18 21:48:00;;;;;;;4.53;2.17;;;;;;;;;;10290983;28;20038;-45
2022/05/18 21:53:00;;;;;;;3.88;2.45;;;;;;;;;;10304921;28;20630;-43
2022/05/18 21:58:03;;;;;;;3.28;2.33;;;;;;;;;;10327263;28;20093;-44
2022/05/18 22:03:11;;;;;;;6.57;1.92;;;;;;;;;;10323972;28;20414;-44
2022/05/18 22:08:13;;;;;;;6.60;2.40;;;;;;;;;;10323597;28;20062;-42
2022/05/18 22:13:13;;;;;;;5.57;2.45;;;;;;;;;;10308708;28;20045;-48
2022/05/18 22:18:14;;;;;;;8.20;2.30;;;;;;;;;;10327070;28;20026;-46
2022/05/18 22:23:17;;;;;;;9.20;2.80;;;;;;;;;;10323044;28;20054;-45
2022/05/18 22:28:25;;;;;;;4.95;2.72;;;;;;;;;;10333253;28;20121;-45
2022/05/18 22:33:26;;;;;;;7.15;2.72;;;;;;;;;;10315444;28;20030;-47
2022/05/18 22:38:27;;;;;;;6.25;2.95;;;;;;;;;;10334111;28;20030;-46
2022/05/18 22:43:27;;;;;;;5.03;3.20;;;;;;;;;;10330469;28;20034;-42
2022/05/18 22:48:28;;;;;;;3.75;2.50;;;;;;;;;;10338060;28;20104;-43
2022/05/18 22:53:29;;;;;;;5.60;2.97;;;;;;;;;;10322134;28;20037;-42
2022/05/18 22:58:29;;;;;;;9.30;2.45;;;;;;;;;;10328815;28;20045;-43
2022/05/18 23:03:33;;;;;;;2.90;2.10;;;;;;;;;;10333674;28;20045;-44
2022/05/18 23:08:34;;;;;;;5.25;2.22;;;;;;;;;;10317652;28;20056;-46
2022/05/18 23:13:34;;;;;;;9.70;2.17;;;;;;;;;;10333012;28;20382;-46
2022/05/18 23:18:41;;;;;;;4.63;2.75;;;;;;;;;;10333537;28;20049;-45
2022/05/18 23:23:44;;;;;;;3.45;2.15;;;;;;;;;;10332953;28;20493;-46
2022/05/18 23:28:45;;;;;;;3.42;2.13;;;;;;;;;;10315957;28;20026;-47
2022/05/18 23:33:49;;;;;;;5.45;2.85;;;;;;;;;;10332695;28;20030;-44
2022/05/18 23:38:51;;;;;;;4.13;2.50;;;;;;;;;;10294220;28;20057;-46
2022/05/18 23:43:51;;;;;;;6.65;2.25;;;;;;;;;;10331490;28;20030;-46
2022/05/18 23:48:59;;;;;;;7.00;2.35;;;;;;;;;;10326899;28;20027;-46
2022/05/18 23:54:08;;;;;;;3.30;2.13;;;;;;;;;;10331490;28;20038;-46
2022/05/18 23:59:38;;;;;;;4.32;2.28;;;;;;;;;;10331774;28;20501;-45
